Time;durP1;ratioP1;P1;durP2;ratioP2;P2;SDS_P1;SDS_P2;PMS_P1;PMS_P2;Temp;Humidity;BMP_temperature;BMP_pressure;BME280_temperature;BME280_humidity;BME280_pressure;Samples;Min_cycle;Max_cycle;Signal;HPM_P1;HPM_P2
2023/10/18 00:02:06;;;;;;;27.80;16.33;;;;;;;;;;773587;181;918984;-61
2023/10/18 00:04:30;;;;;;;22.75;15.50;;;;;;;;;;772293;178;913207;-60
2023/10/18 00:06:56;;;;;;;24.70;16.70;;;;;;;;;;771789;181;791711;-61
2023/10/18 00:11:54;;;;;;;24.83;16.80;;;;;;;;;;766339;182;913787;-64
2023/10/18 00:14:19;;;;;;;33.00;19.00;;;;;;;;;;766802;180;915112;-60
2023/10/18 00:16:45;;;;;;;21.67;16.50;;;;;;;;;;766150;181;914036;-61
2023/10/18 00:19:12;;;;;;;29.13;17.40;;;;;;;;;;770224;181;921241;-62
2023/10/18 00:21:37;;;;;;;23.03;16.90;;;;;;;;;;767200;181;915671;-63
2023/10/18 00:24:03;;;;;;;23.42;14.35;;;;;;;;;;769651;181;915630;-63
2023/10/18 00:26:29;;;;;;;27.07;16.33;;;;;;;;;;775741;181;926306;-63
2023/10/18 00:28:55;;;;;;;22.00;16.17;;;;;;;;;;768422;181;919109;-61
2023/10/18 00:31:21;;;;;;;27.33;16.80;;;;;;;;;;763782;181;818918;-61
2023/10/18 00:33:46;;;;;;;24.63;17.00;;;;;;;;;;771442;178;797900;-61
2023/10/18 00:36:16;;;;;;;20.53;14.83;;;;;;;;;;767794;181;892208;-62
2023/10/18 00:38:39;;;;;;;23.37;16.67;;;;;;;;;;767255;178;916709;-61
2023/10/18 00:41:08;;;;;;;26.50;16.40;;;;;;;;;;764087;181;842548;-62
2023/10/18 00:43:31;;;;;;;31.83;16.30;;;;;;;;;;772505;181;913563;-64
2023/10/18 00:45:56;;;;;;;21.62;15.95;;;;;;;;;;772459;180;916251;-64
2023/10/18 00:48:24;;;;;;;25.80;15.80;;;;;;;;;;769537;181;912892;-64
2023/10/18 00:50:52;;;;;;;24.00;15.27;;;;;;;;;;772682;182;920546;-61
2023/10/18 00:53:20;;;;;;;22.40;15.87;;;;;;;;;;768428;181;912039;-61
2023/10/18 00:55:41;;;;;;;30.27;17.27;;;;;;;;;;773877;178;1017522;-63
2023/10/18 00:58:08;;;;;;;29.23;16.80;;;;;;;;;;774972;178;816555;-61
2023/10/18 01:00:35;;;;;;;21.10;16.23;;;;;;;;;;763390;180;1020395;-63
2023/10/18 01:03:00;;;;;;;26.40;15.50;;;;;;;;;;765995;180;916164;-63
2023/10/18 01:05:25;;;;;;;24.73;16.03;;;;;;;;;;767178;181;913539;-62
2023/10/18 01:07:53;;;;;;;21.43;16.60;;;;;;;;;;759140;184;933207;-62
2023/10/18 01:10:19;;;;;;;24.37;15.60;;;;;;;;;;750481;183;919979;-63
2023/10/18 01:12:44;;;;;;;18.13;14.70;;;;;;;;;;740003;187;919190;-63
2023/10/18 01:15:12;;;;;;;21.53;16.60;;;;;;;;;;759430;185;918882;-62
2023/10/18 01:17:42;;;;;;;26.92;16.98;;;;;;;;;;774603;178;918715;-62
2023/10/18 01:20:12;;;;;;;21.70;13.67;;;;;;;;;;768985;180;816546;-63
2023/10/18 01:22:27;;;;;;;22.60;16.07;;;;;;;;;;768402;181;919257;-65
2023/10/18 01:24:52;;;;;;;19.77;14.57;;;;;;;;;;770088;178;914764;-65
2023/10/18 01:27:18;;;;;;;30.07;14.10;;;;;;;;;;765306;180;921518;-62
2023/10/18 01:29:44;;;;;;;26.37;16.57;;;;;;;;;;774583;181;918494;-65
2023/10/18 01:32:10;;;;;;;21.77;15.50;;;;;;;;;;769098;179;919077;-61
2023/10/18 01:34:37;;;;;;;24.50;15.53;;;;;;;;;;767691;180;918573;-61
2023/10/18 01:37:02;;;;;;;25.73;15.17;;;;;;;;;;768959;180;819123;-64
2023/10/18 01:39:29;;;;;;;26.57;16.20;;;;;;;;;;776750;180;909702;-64
2023/10/18 01:41:54;;;;;;;22.80;15.33;;;;;;;;;;769100;181;923431;-62
2023/10/18 01:46:52;;;;;;;19.60;13.23;;;;;;;;;;771175;178;918645;-64
2023/10/18 01:49:19;;;;;;;22.10;13.60;;;;;;;;;;770436;180;917505;-62
2023/10/18 01:51:44;;;;;;;17.87;13.53;;;;;;;;;;766689;181;926971;-64
2023/10/18 01:54:15;;;;;;;21.95;13.90;;;;;;;;;;767768;181;927473;-63
2023/10/18 01:56:42;;;;;;;22.73;15.97;;;;;;;;;;762474;183;916546;-63
2023/10/18 01:59:08;;;;;;;18.30;12.87;;;;;;;;;;759287;183;921464;-62
2023/10/18 02:01:35;;;;;;;20.30;13.63;;;;;;;;;;767037;181;920713;-61
2023/10/18 02:04:00;;;;;;;21.30;14.10;;;;;;;;;;775498;180;911937;-63
2023/10/18 02:06:25;;;;;;;19.77;17.10;;;;;;;;;;768882;181;919167;-61
2023/10/18 02:08:51;;;;;;;24.60;15.57;;;;;;;;;;768303;180;920968;-62
2023/10/18 02:11:17;;;;;;;22.23;14.67;;;;;;;;;;767512;181;923114;-63
2023/10/18 02:13:42;;;;;;;21.90;14.17;;;;;;;;;;772866;181;916676;-62
2023/10/18 02:16:14;;;;;;;19.13;12.77;;;;;;;;;;760452;181;919236;-63
2023/10/18 02:18:35;;;;;;;18.40;13.30;;;;;;;;;;765064;181;918772;-63
2023/10/18 02:21:02;;;;;;;16.17;12.20;;;;;;;;;;775660;181;836609;-63
2023/10/18 02:23:34;;;;;;;19.10;13.00;;;;;;;;;;768983;180;917924;-61
2023/10/18 02:25:53;;;;;;;20.30;13.00;;;;;;;;;;764598;181;915098;-63
2023/10/18 02:28:22;;;;;;;19.77;14.23;;;;;;;;;;760022;185;916201;-64
2023/10/18 02:30:57;;;;;;;18.10;12.93;;;;;;;;;;767937;178;917906;-63
2023/10/18 02:33:24;;;;;;;20.00;13.97;;;;;;;;;;772907;178;914813;-61
2023/10/18 02:35:49;;;;;;;19.77;13.10;;;;;;;;;;767913;181;915502;-63
2023/10/18 02:38:15;;;;;;;19.83;12.13;;;;;;;;;;773505;180;918750;-63
2023/10/18 02:40:41;;;;;;;19.80;13.10;;;;;;;;;;769479;180;915051;-61
2023/10/18 02:43:11;;;;;;;17.90;14.13;;;;;;;;;;768493;181;876855;-63
2023/10/18 02:45:33;;;;;;;14.90;11.83;;;;;;;;;;765129;181;916393;-63
2023/10/18 02:48:00;;;;;;;20.20;13.77;;;;;;;;;;770438;180;916431;-63
2023/10/18 02:50:25;;;;;;;17.43;13.60;;;;;;;;;;765654;181;920161;-62
2023/10/18 02:52:53;;;;;;;17.57;12.00;;;;;;;;;;768499;181;919908;-64
2023/10/18 02:55:19;;;;;;;18.17;13.13;;;;;;;;;;755842;185;816821;-65
2023/10/18 02:57:46;;;;;;;21.70;12.93;;;;;;;;;;765072;181;920083;-62
2023/10/18 03:00:11;;;;;;;20.35;12.32;;;;;;;;;;767215;181;919648;-63
2023/10/18 03:02:36;;;;;;;19.90;12.20;;;;;;;;;;772272;181;919138;-62
2023/10/18 03:05:05;;;;;;;18.90;12.77;;;;;;;;;;765939;181;896217;-65
2023/10/18 03:07:28;;;;;;;17.40;11.87;;;;;;;;;;772805;180;917137;-62
2023/10/18 03:09:54;;;;;;;17.87;12.37;;;;;;;;;;769956;181;902792;-63
2023/10/18 03:12:21;;;;;;;18.57;12.40;;;;;;;;;;754225;184;919281;-64
2023/10/18 03:17:22;;;;;;;15.18;11.55;;;;;;;;;;769163;181;1022142;-64
2023/10/18 03:20:07;;;;;;;25.23;11.50;;;;;;;;;;773354;181;929962;-63
2023/10/18 03:22:30;;;;;;;17.50;11.10;;;;;;;;;;770818;181;918273;-64
2023/10/18 03:24:54;;;;;;;18.40;11.97;;;;;;;;;;770773;178;889116;-64
2023/10/18 03:27:20;;;;;;;16.50;11.90;;;;;;;;;;765834;181;916715;-63
2023/10/18 03:29:46;;;;;;;18.63;11.70;;;;;;;;;;769835;181;816963;-64
2023/10/18 03:32:19;;;;;;;18.13;11.83;;;;;;;;;;759092;182;914086;-64
2023/10/18 03:34:41;;;;;;;17.77;12.67;;;;;;;;;;752344;183;915230;-63
2023/10/18 03:37:04;;;;;;;19.93;11.47;;;;;;;;;;767291;181;917421;-64
2023/10/18 03:39:30;;;;;;;21.80;12.00;;;;;;;;;;775401;180;916271;-64
2023/10/18 03:41:58;;;;;;;18.73;12.63;;;;;;;;;;772152;177;916034;-64
2023/10/18 03:44:26;;;;;;;16.43;10.40;;;;;;;;;;773501;181;942571;-63
2023/10/18 03:46:48;;;;;;;16.90;11.00;;;;;;;;;;758174;185;814950;-64
2023/10/18 03:49:22;;;;;;;16.80;11.03;;;;;;;;;;757170;181;918458;-65
2023/10/18 03:51:46;;;;;;;19.53;11.83;;;;;;;;;;773439;180;810409;-65
2023/10/18 03:54:13;;;;;;;17.17;12.00;;;;;;;;;;769243;180;918939;-64
2023/10/18 03:56:37;;;;;;;24.27;13.33;;;;;;;;;;771509;181;912801;-64
2023/10/18 03:59:01;;;;;;;21.20;12.53;;;;;;;;;;769197;181;922404;-64
2023/10/18 04:01:28;;;;;;;14.63;10.38;;;;;;;;;;762469;181;921466;-64
2023/10/18 04:03:54;;;;;;;15.53;11.97;;;;;;;;;;777784;178;919539;-63
2023/10/18 04:06:21;;;;;;;18.70;12.07;;;;;;;;;;764894;181;921193;-64
2023/10/18 04:08:47;;;;;;;15.20;10.57;;;;;;;;;;763964;181;921226;-64
2023/10/18 04:11:13;;;;;;;15.43;10.57;;;;;;;;;;768730;181;918920;-65
2023/10/18 04:13:38;;;;;;;16.93;10.73;;;;;;;;;;774477;181;920044;-65
2023/10/18 04:16:11;;;;;;;23.58;13.27;;;;;;;;;;765424;181;921168;-64
2023/10/18 04:18:37;;;;;;;17.60;11.30;;;;;;;;;;764839;180;919231;-65
2023/10/18 04:21:05;;;;;;;16.40;10.33;;;;;;;;;;775807;181;918068;-65
2023/10/18 04:23:29;;;;;;;16.17;11.57;;;;;;;;;;771566;181;919027;-64
2023/10/18 04:25:58;;;;;;;15.47;10.67;;;;;;;;;;766808;180;918656;-63
2023/10/18 04:28:24;;;;;;;20.37;13.27;;;;;;;;;;767970;181;919560;-64
2023/10/18 04:30:52;;;;;;;13.87;10.00;;;;;;;;;;774449;180;780041;-64
2023/10/18 04:33:35;;;;;;;15.03;9.83;;;;;;;;;;769721;181;844979;-64
2023/10/18 04:36:09;;;;;;;15.87;10.13;;;;;;;;;;772372;181;919263;-64
2023/10/18 04:38:42;;;;;;;14.03;9.13;;;;;;;;;;775653;180;630934;-64
2023/10/18 04:41:08;;;;;;;16.20;10.97;;;;;;;;;;772234;181;626899;-65
2023/10/18 04:43:32;;;;;;;13.30;9.40;;;;;;;;;;778206;181;626051;-64
2023/10/18 04:45:58;;;;;;;14.97;10.20;;;;;;;;;;753778;183;622472;-64
2023/10/18 04:48:59;;;;;;;14.03;9.47;;;;;;;;;;758580;182;724749;-64
2023/10/18 04:50:52;;;;;;;15.17;10.77;;;;;;;;;;757508;182;817828;-64
2023/10/18 04:53:23;;;;;;;17.35;9.85;;;;;;;;;;754736;183;893767;-65
2023/10/18 04:55:46;;;;;;;12.37;9.20;;;;;;;;;;757037;184;917884;-64
2023/10/18 04:58:10;;;;;;;13.17;10.00;;;;;;;;;;759742;182;622571;-65
2023/10/18 05:00:36;;;;;;;14.30;10.27;;;;;;;;;;770958;181;630442;-64
2023/10/18 05:03:07;;;;;;;19.00;9.90;;;;;;;;;;779186;178;624187;-65
2023/10/18 05:05:28;;;;;;;19.83;9.10;;;;;;;;;;774449;179;913852;-64
2023/10/18 05:07:54;;;;;;;12.97;9.60;;;;;;;;;;775885;180;919103;-64
2023/10/18 05:10:21;;;;;;;12.67;9.03;;;;;;;;;;765273;178;1122196;-63
2023/10/18 05:12:49;;;;;;;16.03;9.20;;;;;;;;;;769363;178;926828;-64
2023/10/18 05:15:21;;;;;;;16.75;10.10;;;;;;;;;;770975;181;918364;-64
2023/10/18 05:17:43;;;;;;;13.67;9.80;;;;;;;;;;772836;182;920325;-63
2023/10/18 05:20:22;;;;;;;12.33;9.00;;;;;;;;;;767503;178;918597;-63
2023/10/18 05:22:50;;;;;;;11.47;8.43;;;;;;;;;;762073;180;919870;-62
2023/10/18 05:25:23;;;;;;;14.20;9.97;;;;;;;;;;766985;181;818162;-64
2023/10/18 05:27:59;;;;;;;12.00;9.23;;;;;;;;;;769948;181;924105;-65
2023/10/18 05:30:25;;;;;;;26.67;13.50;;;;;;;;;;773488;181;815779;-64
2023/10/18 05:35:19;;;;;;;27.50;19.05;;;;;;;;;;769733;179;916721;-64
2023/10/18 05:37:50;;;;;;;34.70;27.15;;;;;;;;;;766882;181;910773;-64
2023/10/18 05:40:55;;;;;;;16.60;13.13;;;;;;;;;;765519;181;913400;-65
2023/10/18 05:42:56;;;;;;;16.30;12.13;;;;;;;;;;765273;181;904748;-64
2023/10/18 05:45:22;;;;;;;15.63;11.10;;;;;;;;;;767207;180;918667;-63
2023/10/18 05:47:54;;;;;;;14.63;10.83;;;;;;;;;;767320;181;918626;-64
2023/10/18 05:50:14;;;;;;;15.83;11.33;;;;;;;;;;764045;181;912927;-64
2023/10/18 05:52:39;;;;;;;13.40;9.38;;;;;;;;;;769807;178;919337;-66
2023/10/18 05:55:08;;;;;;;16.37;11.10;;;;;;;;;;771578;179;922165;-64
2023/10/18 05:57:32;;;;;;;15.63;9.97;;;;;;;;;;769671;180;913300;-64
2023/10/18 05:59:59;;;;;;;18.30;10.63;;;;;;;;;;767827;181;900264;-63
2023/10/18 06:02:25;;;;;;;17.00;11.93;;;;;;;;;;769411;178;913676;-64
2023/10/18 06:04:51;;;;;;;16.87;12.20;;;;;;;;;;766861;181;926637;-62
2023/10/18 06:07:18;;;;;;;16.07;11.13;;;;;;;;;;760159;181;909715;-65
2023/10/18 06:09:46;;;;;;;20.47;16.07;;;;;;;;;;763895;180;916184;-64
2023/10/18 06:12:15;;;;;;;19.50;12.30;;;;;;;;;;769111;180;920373;-62
2023/10/18 06:14:40;;;;;;;14.73;10.17;;;;;;;;;;771452;181;922272;-63
2023/10/18 06:17:06;;;;;;;25.40;19.70;;;;;;;;;;769135;180;918374;-64
2023/10/18 06:19:33;;;;;;;26.70;19.40;;;;;;;;;;769609;178;916055;-64
2023/10/18 06:21:59;;;;;;;20.87;13.80;;;;;;;;;;763822;180;916885;-65
2023/10/18 06:24:25;;;;;;;45.08;21.48;;;;;;;;;;761654;181;781903;-65
2023/10/18 06:26:52;;;;;;;36.67;18.20;;;;;;;;;;763293;182;914961;-63
2023/10/18 06:29:22;;;;;;;51.20;33.73;;;;;;;;;;766726;179;919155;-64
2023/10/18 06:31:43;;;;;;;34.33;18.00;;;;;;;;;;773185;179;903721;-62
2023/10/18 06:34:15;;;;;;;37.03;18.10;;;;;;;;;;767761;181;918667;-63
2023/10/18 06:36:39;;;;;;;34.37;18.13;;;;;;;;;;766709;181;919033;-63
2023/10/18 06:39:04;;;;;;;18.97;12.27;;;;;;;;;;776764;178;915326;-63
2023/10/18 06:41:29;;;;;;;17.63;11.90;;;;;;;;;;765106;180;920128;-65
2023/10/18 06:43:58;;;;;;;15.53;9.70;;;;;;;;;;772257;177;931986;-68
2023/10/18 06:46:26;;;;;;;14.63;9.70;;;;;;;;;;769904;181;919493;-65
2023/10/18 06:48:50;;;;;;;12.80;8.30;;;;;;;;;;772963;181;912943;-68
2023/10/18 06:51:17;;;;;;;11.20;8.63;;;;;;;;;;752673;183;817266;-66
2023/10/18 06:53:47;;;;;;;12.27;8.47;;;;;;;;;;754638;182;930289;-65
2023/10/18 06:56:19;;;;;;;12.80;8.80;;;;;;;;;;758540;184;918775;-65
2023/10/18 07:01:19;;;;;;;12.70;8.80;;;;;;;;;;763791;181;918051;-70
2023/10/18 07:03:42;;;;;;;13.53;8.17;;;;;;;;;;770050;180;918627;-66
2023/10/18 07:06:16;;;;;;;14.73;8.47;;;;;;;;;;774761;180;914645;-71
2023/10/18 07:08:33;;;;;;;16.80;9.27;;;;;;;;;;764777;180;916721;-65
2023/10/18 07:11:01;;;;;;;12.23;8.40;;;;;;;;;;749106;184;918466;-72
2023/10/18 07:13:42;;;;;;;12.63;8.33;;;;;;;;;;758783;181;923344;-70
2023/10/18 07:16:11;;;;;;;13.85;8.40;;;;;;;;;;768900;181;919959;-66
2023/10/18 07:18:33;;;;;;;12.90;8.53;;;;;;;;;;777933;179;918732;-72
2023/10/18 07:20:59;;;;;;;9.33;7.30;;;;;;;;;;767597;180;919793;-70
2023/10/18 07:23:26;;;;;;;9.90;7.60;;;;;;;;;;766227;182;919264;-70
2023/10/18 07:25:51;;;;;;;10.27;7.50;;;;;;;;;;760390;185;817067;-64
2023/10/18 07:28:19;;;;;;;14.20;9.13;;;;;;;;;;754235;183;916943;-70
2023/10/18 07:30:44;;;;;;;15.10;8.20;;;;;;;;;;753840;183;915758;-70
2023/10/18 07:33:09;;;;;;;10.10;7.33;;;;;;;;;;759592;182;935169;-65
2023/10/18 07:35:32;;;;;;;16.10;8.30;;;;;;;;;;770213;181;918715;-64
2023/10/18 07:37:58;;;;;;;14.07;8.30;;;;;;;;;;771032;181;917953;-64
2023/10/18 07:40:33;;;;;;;12.07;7.67;;;;;;;;;;757724;185;919168;-69
2023/10/18 07:42:51;;;;;;;10.70;7.70;;;;;;;;;;735293;187;918699;-69
2023/10/18 07:45:17;;;;;;;12.10;7.97;;;;;;;;;;770018;181;919670;-69
2023/10/18 07:47:43;;;;;;;13.32;7.90;;;;;;;;;;769360;180;919943;-65
2023/10/18 07:52:41;;;;;;;12.50;7.53;;;;;;;;;;765944;180;816189;-64
2023/10/18 07:55:07;;;;;;;12.20;7.33;;;;;;;;;;766600;181;918769;-63
2023/10/18 07:57:34;;;;;;;13.35;8.20;;;;;;;;;;773810;180;947034;-69
2023/10/18 08:02:32;;;;;;;12.60;7.40;;;;;;;;;;763199;181;919006;-64
2023/10/18 08:05:00;;;;;;;11.07;6.80;;;;;;;;;;764544;178;920790;-64
2023/10/18 08:07:23;;;;;;;12.07;7.80;;;;;;;;;;776572;179;816774;-68
2023/10/18 08:09:51;;;;;;;15.87;10.07;;;;;;;;;;767699;180;918168;-69
2023/10/18 08:12:33;;;;;;;12.57;8.40;;;;;;;;;;770548;180;919487;-68
2023/10/18 08:14:56;;;;;;;8.00;6.10;;;;;;;;;;766541;181;920495;-65
2023/10/18 08:17:43;;;;;;;22.73;13.60;;;;;;;;;;772610;181;817586;-65
2023/10/18 08:22:39;;;;;;;15.63;9.23;;;;;;;;;;750100;185;918699;-69
2023/10/18 08:25:01;;;;;;;24.20;13.80;;;;;;;;;;766769;181;923931;-65
2023/10/18 08:27:26;;;;;;;11.73;8.60;;;;;;;;;;765480;181;916711;-65
2023/10/18 08:29:52;;;;;;;11.67;7.50;;;;;;;;;;769981;181;920940;-66
2023/10/18 08:32:18;;;;;;;11.63;7.10;;;;;;;;;;767264;181;912515;-67
2023/10/18 08:34:44;;;;;;;14.37;8.73;;;;;;;;;;767326;180;923738;-65
2023/10/18 08:37:13;;;;;;;10.67;7.30;;;;;;;;;;771695;181;917894;-67
2023/10/18 08:39:39;;;;;;;13.47;7.50;;;;;;;;;;762290;181;912127;-65
2023/10/18 08:42:05;;;;;;;11.10;6.80;;;;;;;;;;771587;180;921172;-65
2023/10/18 08:44:31;;;;;;;10.67;7.30;;;;;;;;;;752455;183;917002;-65
2023/10/18 08:49:32;;;;;;;14.57;7.00;;;;;;;;;;763278;181;945475;-65
2023/10/18 08:52:04;;;;;;;9.00;6.57;;;;;;;;;;754654;182;918687;-66
2023/10/18 08:54:22;;;;;;;12.40;7.73;;;;;;;;;;757633;185;920476;-64
2023/10/18 08:56:47;;;;;;;9.53;6.30;;;;;;;;;;753711;184;917470;-66
2023/10/18 08:59:18;;;;;;;10.20;6.20;;;;;;;;;;768228;180;917076;-65
2023/10/18 09:01:39;;;;;;;12.10;6.50;;;;;;;;;;762413;182;919233;-65
2023/10/18 09:04:07;;;;;;;8.07;6.23;;;;;;;;;;761474;182;919359;-65
2023/10/18 09:06:31;;;;;;;10.63;6.07;;;;;;;;;;770536;180;918472;-66
2023/10/18 09:11:28;;;;;;;10.13;5.93;;;;;;;;;;760408;184;918312;-68
2023/10/18 09:14:08;;;;;;;9.43;6.37;;;;;;;;;;754796;183;917107;-68
2023/10/18 09:16:38;;;;;;;7.97;5.30;;;;;;;;;;771787;178;917394;-66
2023/10/18 09:19:03;;;;;;;10.23;6.83;;;;;;;;;;771182;180;915619;-67
2023/10/18 09:21:36;;;;;;;9.50;5.80;;;;;;;;;;766701;180;921719;-65
2023/10/18 09:24:00;;;;;;;8.10;4.83;;;;;;;;;;758737;184;817485;-66
2023/10/18 09:26:26;;;;;;;7.70;4.40;;;;;;;;;;764667;180;918928;-68
2023/10/18 09:28:47;;;;;;;6.18;3.75;;;;;;;;;;775800;178;917842;-67
2023/10/18 09:31:18;;;;;;;5.37;3.30;;;;;;;;;;770797;180;919091;-67
2023/10/18 09:33:48;;;;;;;8.73;3.40;;;;;;;;;;767774;179;918763;-67
2023/10/18 09:36:18;;;;;;;6.73;3.97;;;;;;;;;;769181;181;918584;-69
2023/10/18 09:38:39;;;;;;;5.87;3.33;;;;;;;;;;766732;180;918314;-68
2023/10/18 09:41:05;;;;;;;6.83;2.93;;;;;;;;;;769716;181;919275;-66
2023/10/18 09:43:32;;;;;;;8.45;4.30;;;;;;;;;;747397;183;919102;-68
2023/10/18 09:45:59;;;;;;;9.23;3.63;;;;;;;;;;753438;182;919876;-66
2023/10/18 09:48:23;;;;;;;5.53;3.55;;;;;;;;;;756551;185;919175;-66
2023/10/18 09:50:48;;;;;;;8.57;3.73;;;;;;;;;;754725;182;919219;-68
2023/10/18 09:53:14;;;;;;;5.43;3.10;;;;;;;;;;772026;181;817011;-67
2023/10/18 09:55:42;;;;;;;6.87;4.17;;;;;;;;;;754548;185;921146;-67
2023/10/18 09:58:14;;;;;;;9.03;3.53;;;;;;;;;;738931;187;923782;-68
2023/10/18 10:00:31;;;;;;;7.90;5.20;;;;;;;;;;765238;181;919943;-67
2023/10/18 10:02:58;;;;;;;5.70;3.13;;;;;;;;;;762621;178;946786;-68
2023/10/18 10:05:25;;;;;;;7.10;3.77;;;;;;;;;;764177;182;717868;-68
2023/10/18 10:07:56;;;;;;;10.27;3.87;;;;;;;;;;768558;181;918774;-68
2023/10/18 10:10:24;;;;;;;9.00;3.17;;;;;;;;;;766851;180;896180;-67
2023/10/18 10:12:47;;;;;;;7.35;3.78;;;;;;;;;;774421;178;933794;-69
2023/10/18 10:15:14;;;;;;;7.23;3.20;;;;;;;;;;755042;184;919351;-68
2023/10/18 10:17:41;;;;;;;8.63;3.77;;;;;;;;;;753836;184;920031;-69
2023/10/18 10:20:10;;;;;;;7.63;3.50;;;;;;;;;;745847;185;914116;-68
2023/10/18 10:22:37;;;;;;;5.83;3.70;;;;;;;;;;772222;180;921924;-67
2023/10/18 10:25:04;;;;;;;6.73;3.60;;;;;;;;;;771569;180;919334;-68
2023/10/18 10:32:45;;;;;;;7.53;4.37;;;;;;;;;;755238;182;814682;-68
2023/10/18 10:35:15;;;;;;;6.90;3.70;;;;;;;;;;757357;183;915840;-68
2023/10/18 10:37:47;;;;;;;5.53;3.50;;;;;;;;;;740563;187;918117;-67
2023/10/18 10:40:19;;;;;;;7.20;4.17;;;;;;;;;;769797;177;928516;-67
2023/10/18 10:42:48;;;;;;;6.87;3.60;;;;;;;;;;767361;181;924726;-67
2023/10/18 10:45:39;;;;;;;8.20;3.83;;;;;;;;;;773202;180;915428;-68
2023/10/18 10:48:11;;;;;;;7.10;3.47;;;;;;;;;;767905;180;934189;-67
2023/10/18 10:50:42;;;;;;;5.53;3.50;;;;;;;;;;761408;183;923323;-69
2023/10/18 10:53:05;;;;;;;5.57;3.37;;;;;;;;;;757488;183;920215;-68
2023/10/18 10:55:32;;;;;;;4.53;3.10;;;;;;;;;;764754;181;920943;-67
2023/10/18 10:57:57;;;;;;;7.15;3.40;;;;;;;;;;760237;183;815943;-69
2023/10/18 11:00:36;;;;;;;8.63;4.30;;;;;;;;;;771667;181;717086;-68
2023/10/18 11:02:53;;;;;;;7.43;3.70;;;;;;;;;;758205;178;924549;-68
2023/10/18 11:05:16;;;;;;;5.43;3.27;;;;;;;;;;751645;185;920440;-68
2023/10/18 11:07:42;;;;;;;5.47;2.90;;;;;;;;;;766482;182;917865;-68
2023/10/18 11:10:14;;;;;;;6.33;3.87;;;;;;;;;;767636;181;917791;-68
2023/10/18 11:12:33;;;;;;;4.10;2.93;;;;;;;;;;764608;181;928256;-67
2023/10/18 11:14:59;;;;;;;5.50;3.00;;;;;;;;;;776950;180;917011;-68
2023/10/18 11:17:24;;;;;;;6.97;2.77;;;;;;;;;;769170;181;916135;-66
2023/10/18 11:19:53;;;;;;;5.87;3.60;;;;;;;;;;766304;181;918484;-68
2023/10/18 11:22:20;;;;;;;5.45;3.20;;;;;;;;;;769196;181;884101;-68
2023/10/18 11:24:49;;;;;;;4.93;3.00;;;;;;;;;;759381;182;915604;-68
2023/10/18 11:27:12;;;;;;;6.17;3.87;;;;;;;;;;746378;185;919103;-68
2023/10/18 11:29:39;;;;;;;8.88;3.20;;;;;;;;;;756265;185;920855;-66
2023/10/18 11:32:07;;;;;;;3.87;3.10;;;;;;;;;;762640;184;920957;-67
2023/10/18 11:34:33;;;;;;;4.30;2.70;;;;;;;;;;758493;182;819241;-67
2023/10/18 11:37:02;;;;;;;7.93;3.00;;;;;;;;;;755497;182;919413;-66
2023/10/18 11:39:29;;;;;;;6.50;2.77;;;;;;;;;;759917;185;919327;-67
2023/10/18 11:41:49;;;;;;;4.47;2.73;;;;;;;;;;771673;181;920698;-67
2023/10/18 11:44:32;;;;;;;5.53;3.10;;;;;;;;;;772532;178;816956;-67
2023/10/18 11:47:00;;;;;;;5.10;3.07;;;;;;;;;;771206;178;919961;-68
2023/10/18 11:49:31;;;;;;;5.87;3.03;;;;;;;;;;765867;182;918086;-68
2023/10/18 11:51:57;;;;;;;5.20;2.93;;;;;;;;;;773768;181;878156;-67
2023/10/18 11:54:26;;;;;;;6.23;3.17;;;;;;;;;;766385;178;817052;-66
2023/10/18 11:56:52;;;;;;;8.90;3.00;;;;;;;;;;758441;182;908006;-67
2023/10/18 11:59:18;;;;;;;3.77;2.60;;;;;;;;;;755903;182;913960;-67
2023/10/18 12:01:45;;;;;;;5.60;3.20;;;;;;;;;;760818;185;814669;-68
2023/10/18 12:04:10;;;;;;;6.47;2.93;;;;;;;;;;772565;180;816229;-67
2023/10/18 12:06:36;;;;;;;5.40;3.20;;;;;;;;;;771232;181;819848;-68
2023/10/18 12:11:33;;;;;;;8.93;3.07;;;;;;;;;;766569;181;918686;-67
2023/10/18 12:13:59;;;;;;;7.17;3.33;;;;;;;;;;770802;181;919177;-66
2023/10/18 12:16:25;;;;;;;5.73;3.60;;;;;;;;;;775949;180;630084;-67
2023/10/18 12:18:52;;;;;;;6.30;2.77;;;;;;;;;;772539;179;816215;-66
2023/10/18 12:21:16;;;;;;;5.50;2.77;;;;;;;;;;773542;181;776260;-66
2023/10/18 12:23:42;;;;;;;5.25;3.05;;;;;;;;;;755826;185;917601;-67
2023/10/18 12:26:08;;;;;;;5.97;2.83;;;;;;;;;;757925;185;815683;-67
2023/10/18 12:28:37;;;;;;;5.80;2.90;;;;;;;;;;757614;183;919612;-67
2023/10/18 12:31:09;;;;;;;4.80;3.07;;;;;;;;;;764544;180;922275;-67
2023/10/18 12:33:27;;;;;;;7.40;3.23;;;;;;;;;;771690;181;818114;-68
2023/10/18 12:35:56;;;;;;;6.33;3.20;;;;;;;;;;764638;181;915891;-67
2023/10/18 12:38:31;;;;;;;5.13;3.57;;;;;;;;;;753136;182;942302;-68
2023/10/18 12:40:52;;;;;;;8.80;3.80;;;;;;;;;;769655;180;916481;-67
2023/10/18 12:43:19;;;;;;;5.83;3.40;;;;;;;;;;770208;180;810260;-68
2023/10/18 12:45:45;;;;;;;4.43;3.07;;;;;;;;;;772206;180;905359;-67
2023/10/18 12:48:11;;;;;;;6.80;3.40;;;;;;;;;;757230;182;895007;-67
2023/10/18 12:50:36;;;;;;;4.77;3.00;;;;;;;;;;760580;184;850166;-69
2023/10/18 12:55:36;;;;;;;5.70;2.87;;;;;;;;;;770796;178;919219;-66
2023/10/18 12:58:06;;;;;;;5.87;3.77;;;;;;;;;;768412;181;919055;-68
2023/10/18 13:00:36;;;;;;;6.83;3.47;;;;;;;;;;774993;178;921825;-67
2023/10/18 13:05:41;;;;;;;7.00;3.73;;;;;;;;;;764023;181;818050;-67
2023/10/18 13:08:16;;;;;;;6.17;3.40;;;;;;;;;;774702;178;920167;-67
2023/10/18 13:10:35;;;;;;;4.63;3.40;;;;;;;;;;770487;181;817020;-66
2023/10/18 13:13:04;;;;;;;5.30;3.90;;;;;;;;;;775148;180;814225;-66
2023/10/18 13:15:25;;;;;;;5.30;2.77;;;;;;;;;;768681;180;920468;-69
2023/10/18 13:17:51;;;;;;;6.13;3.33;;;;;;;;;;770455;177;918611;-69
2023/10/18 13:20:24;;;;;;;5.60;3.30;;;;;;;;;;775549;179;919438;-69
2023/10/18 13:22:43;;;;;;;8.17;4.07;;;;;;;;;;767462;182;918500;-67
2023/10/18 13:25:09;;;;;;;9.10;3.70;;;;;;;;;;766690;182;921622;-66
2023/10/18 13:27:37;;;;;;;4.87;3.10;;;;;;;;;;774723;181;921597;-67
2023/10/18 13:30:31;;;;;;;5.97;3.43;;;;;;;;;;767795;181;843782;-68
2023/10/18 13:32:29;;;;;;;7.43;3.50;;;;;;;;;;764765;181;916427;-66
2023/10/18 13:34:55;;;;;;;6.57;3.40;;;;;;;;;;769836;181;819572;-67
2023/10/18 13:37:23;;;;;;;4.70;2.87;;;;;;;;;;776994;181;624656;-69
2023/10/18 13:39:47;;;;;;;7.83;3.53;;;;;;;;;;767965;181;816926;-67
2023/10/18 13:42:14;;;;;;;5.70;2.77;;;;;;;;;;770190;181;915944;-65
2023/10/18 13:44:41;;;;;;;8.10;3.70;;;;;;;;;;770045;181;916262;-67
2023/10/18 13:47:07;;;;;;;7.83;4.03;;;;;;;;;;769134;181;918752;-67
2023/10/18 13:49:33;;;;;;;5.57;3.30;;;;;;;;;;755302;182;920971;-67
2023/10/18 13:51:57;;;;;;;6.87;3.47;;;;;;;;;;763331;183;817617;-67
2023/10/18 13:54:23;;;;;;;5.40;3.00;;;;;;;;;;769251;178;920958;-67
2023/10/18 13:56:49;;;;;;;5.37;3.93;;;;;;;;;;773224;179;637897;-67
2023/10/18 13:59:14;;;;;;;5.70;3.53;;;;;;;;;;772726;180;625961;-67
2023/10/18 14:01:41;;;;;;;6.30;3.80;;;;;;;;;;774515;181;817114;-66
2023/10/18 14:04:08;;;;;;;6.20;4.10;;;;;;;;;;768577;181;923020;-67
2023/10/18 14:06:33;;;;;;;5.93;3.63;;;;;;;;;;766289;181;820155;-67
2023/10/18 14:08:58;;;;;;;5.80;3.53;;;;;;;;;;762981;182;645176;-68
2023/10/18 14:11:25;;;;;;;7.40;5.47;;;;;;;;;;760253;182;918837;-69
2023/10/18 14:13:51;;;;;;;9.47;4.77;;;;;;;;;;766888;180;924016;-67
2023/10/18 14:16:17;;;;;;;6.47;4.07;;;;;;;;;;775444;181;816342;-67
2023/10/18 14:18:46;;;;;;;6.77;4.37;;;;;;;;;;757487;184;913684;-67
2023/10/18 14:21:12;;;;;;;10.77;5.20;;;;;;;;;;755267;182;920719;-68
2023/10/18 14:23:38;;;;;;;6.00;4.10;;;;;;;;;;769355;181;815513;-66
2023/10/18 14:26:04;;;;;;;8.60;4.40;;;;;;;;;;772895;181;918743;-67
2023/10/18 14:28:32;;;;;;;10.13;5.57;;;;;;;;;;770774;178;913379;-65
2023/10/18 14:30:58;;;;;;;7.40;5.35;;;;;;;;;;768708;180;915680;-64
2023/10/18 14:33:22;;;;;;;12.13;7.87;;;;;;;;;;768057;180;917538;-67
2023/10/18 14:35:48;;;;;;;11.70;5.60;;;;;;;;;;755262;183;920549;-66
2023/10/18 14:38:13;;;;;;;9.07;5.27;;;;;;;;;;762309;181;918089;-65
2023/10/18 14:40:42;;;;;;;17.00;10.05;;;;;;;;;;765619;181;921644;-66
2023/10/18 14:43:08;;;;;;;9.17;5.90;;;;;;;;;;768783;180;915019;-67
2023/10/18 14:45:34;;;;;;;14.10;9.83;;;;;;;;;;769573;181;727286;-67
2023/10/18 14:48:00;;;;;;;7.83;4.53;;;;;;;;;;768859;180;947730;-65
2023/10/18 14:50:27;;;;;;;8.80;5.33;;;;;;;;;;774169;181;920771;-66
2023/10/18 14:52:52;;;;;;;9.20;5.67;;;;;;;;;;768244;181;816680;-66